sensor_id;sensor_type;location;lat;lon;timestamp;P1;durP1;ratioP1;P2;durP2;ratioP2
51746;SDS011;37825;40.088;18.302;2024-01-30T00:00:15;17.20;;;11.40;;
51746;SDS011;37825;40.088;18.302;2024-01-30T00:02:44;11.95;;;8.20;;
51746;SDS011;37825;40.088;18.302;2024-01-30T00:05:14;10.20;;;7.10;;
51746;SDS011;37825;40.088;18.302;2024-01-30T00:07:43;7.90;;;6.20;;
51746;SDS011;37825;40.088;18.302;2024-01-30T00:10:13;6.53;;;5.43;;
51746;SDS011;37825;40.088;18.302;2024-01-30T00:12:42;10.27;;;6.07;;
51746;SDS011;37825;40.088;18.302;2024-01-30T00:15:12;9.30;;;6.77;;
51746;SDS011;37825;40.088;18.302;2024-01-30T00:17:43;22.17;;;18.13;;
51746;SDS011;37825;40.088;18.302;2024-01-30T00:20:13;32.90;;;29.40;;
51746;SDS011;37825;40.088;18.302;2024-01-30T00:22:42;16.43;;;15.00;;
51746;SDS011;37825;40.088;18.302;2024-01-30T00:25:11;13.77;;;10.13;;
51746;SDS011;37825;40.088;18.302;2024-01-30T00:27:41;12.23;;;10.97;;
51746;SDS011;37825;40.088;18.302;2024-01-30T00:30:11;6.00;;;5.40;;
51746;SDS011;37825;40.088;18.302;2024-01-30T00:32:40;6.57;;;4.87;;
51746;SDS011;37825;40.088;18.302;2024-01-30T00:35:11;6.60;;;5.00;;
51746;SDS011;37825;40.088;18.302;2024-01-30T00:37:41;8.90;;;6.78;;
51746;SDS011;37825;40.088;18.302;2024-01-30T00:40:10;7.73;;;6.97;;
51746;SDS011;37825;40.088;18.302;2024-01-30T00:42:43;7.43;;;5.77;;
51746;SDS011;37825;40.088;18.302;2024-01-30T00:45:13;3.53;;;2.97;;
51746;SDS011;37825;40.088;18.302;2024-01-30T00:47:42;6.63;;;3.90;;
51746;SDS011;37825;40.088;18.302;2024-01-30T00:50:13;3.43;;;3.13;;
51746;SDS011;37825;40.088;18.302;2024-01-30T00:52:42;6.90;;;4.72;;
51746;SDS011;37825;40.088;18.302;2024-01-30T00:55:12;6.17;;;5.43;;
51746;SDS011;37825;40.088;18.302;2024-01-30T00:57:42;8.40;;;4.70;;
51746;SDS011;37825;40.088;18.302;2024-01-30T01:00:12;8.27;;;4.87;;
51746;SDS011;37825;40.088;18.302;2024-01-30T01:02:44;11.37;;;7.37;;
51746;SDS011;37825;40.088;18.302;2024-01-30T01:05:14;14.50;;;10.40;;
51746;SDS011;37825;40.088;18.302;2024-01-30T01:07:44;9.82;;;8.80;;
51746;SDS011;37825;40.088;18.302;2024-01-30T01:10:16;14.07;;;8.63;;
51746;SDS011;37825;40.088;18.302;2024-01-30T01:12:45;9.80;;;7.50;;
51746;SDS011;37825;40.088;18.302;2024-01-30T01:15:14;5.83;;;4.53;;
51746;SDS011;37825;40.088;18.302;2024-01-30T01:17:44;8.43;;;3.70;;
51746;SDS011;37825;40.088;18.302;2024-01-30T01:20:15;6.37;;;3.00;;
51746;SDS011;37825;40.088;18.302;2024-01-30T01:22:44;7.00;;;3.95;;
51746;SDS011;37825;40.088;18.302;2024-01-30T01:25:13;4.93;;;3.10;;
51746;SDS011;37825;40.088;18.302;2024-01-30T01:27:43;3.83;;;2.97;;
51746;SDS011;37825;40.088;18.302;2024-01-30T01:30:18;4.43;;;3.00;;
51746;SDS011;37825;40.088;18.302;2024-01-30T01:32:49;3.97;;;3.05;;
51746;SDS011;37825;40.088;18.302;2024-01-30T01:35:23;4.47;;;3.00;;
51746;SDS011;37825;40.088;18.302;2024-01-30T01:37:54;4.47;;;2.60;;
51746;SDS011;37825;40.088;18.302;2024-01-30T01:40:23;4.53;;;2.93;;
51746;SDS011;37825;40.088;18.302;2024-01-30T01:42:54;6.47;;;4.97;;
51746;SDS011;37825;40.088;18.302;2024-01-30T01:45:23;6.70;;;6.10;;
51746;SDS011;37825;40.088;18.302;2024-01-30T01:47:52;5.50;;;4.00;;
51746;SDS011;37825;40.088;18.302;2024-01-30T01:50:24;5.03;;;4.13;;
51746;SDS011;37825;40.088;18.302;2024-01-30T01:52:53;4.10;;;3.60;;
51746;SDS011;37825;40.088;18.302;2024-01-30T01:55:23;4.83;;;4.13;;
51746;SDS011;37825;40.088;18.302;2024-01-30T01:57:55;8.95;;;4.43;;
51746;SDS011;37825;40.088;18.302;2024-01-30T02:00:24;6.63;;;4.80;;
51746;SDS011;37825;40.088;18.302;2024-01-30T02:02:54;6.00;;;4.90;;
51746;SDS011;37825;40.088;18.302;2024-01-30T02:05:24;7.73;;;4.23;;
51746;SDS011;37825;40.088;18.302;2024-01-30T02:07:54;5.95;;;5.13;;
51746;SDS011;37825;40.088;18.302;2024-01-30T02:10:25;2.63;;;2.37;;
51746;SDS011;37825;40.088;18.302;2024-01-30T02:12:54;4.73;;;3.50;;
51746;SDS011;37825;40.088;18.302;2024-01-30T02:15:24;4.23;;;3.80;;
51746;SDS011;37825;40.088;18.302;2024-01-30T02:17:53;7.40;;;4.27;;
51746;SDS011;37825;40.088;18.302;2024-01-30T02:20:24;4.43;;;3.77;;
51746;SDS011;37825;40.088;18.302;2024-01-30T02:22:55;5.00;;;4.13;;
51746;SDS011;37825;40.088;18.302;2024-01-30T02:25:32;4.50;;;3.70;;
51746;SDS011;37825;40.088;18.302;2024-01-30T02:28:02;6.30;;;4.20;;
51746;SDS011;37825;40.088;18.302;2024-01-30T02:30:31;5.67;;;4.17;;
51746;SDS011;37825;40.088;18.302;2024-01-30T02:33:01;4.03;;;3.63;;
51746;SDS011;37825;40.088;18.302;2024-01-30T02:35:30;8.27;;;6.97;;
51746;SDS011;37825;40.088;18.302;2024-01-30T02:38:02;10.10;;;6.97;;
51746;SDS011;37825;40.088;18.302;2024-01-30T02:40:31;6.85;;;5.78;;
51746;SDS011;37825;40.088;18.302;2024-01-30T02:43:01;7.10;;;5.50;;
51746;SDS011;37825;40.088;18.302;2024-01-30T02:45:31;7.23;;;6.53;;
51746;SDS011;37825;40.088;18.302;2024-01-30T02:48:00;9.57;;;6.93;;
51746;SDS011;37825;40.088;18.302;2024-01-30T02:50:29;7.87;;;5.47;;
51746;SDS011;37825;40.088;18.302;2024-01-30T02:52:59;6.70;;;5.40;;
51746;SDS011;37825;40.088;18.302;2024-01-30T02:55:30;7.63;;;5.27;;
51746;SDS011;37825;40.088;18.302;2024-01-30T02:57:59;8.15;;;4.72;;
51746;SDS011;37825;40.088;18.302;2024-01-30T03:00:28;8.10;;;5.23;;
51746;SDS011;37825;40.088;18.302;2024-01-30T03:02:58;6.40;;;4.43;;
51746;SDS011;37825;40.088;18.302;2024-01-30T03:05:27;13.30;;;4.50;;
51746;SDS011;37825;40.088;18.302;2024-01-30T03:07:56;3.40;;;3.00;;
51746;SDS011;37825;40.088;18.302;2024-01-30T03:10:26;6.33;;;3.97;;
51746;SDS011;37825;40.088;18.302;2024-01-30T03:12:56;6.43;;;3.70;;
51746;SDS011;37825;40.088;18.302;2024-01-30T03:15:26;6.68;;;3.22;;
51746;SDS011;37825;40.088;18.302;2024-01-30T03:17:55;4.00;;;3.60;;
51746;SDS011;37825;40.088;18.302;2024-01-30T03:20:24;4.93;;;3.80;;
51746;SDS011;37825;40.088;18.302;2024-01-30T03:22:54;6.27;;;4.70;;
51746;SDS011;37825;40.088;18.302;2024-01-30T03:25:24;8.53;;;6.73;;
51746;SDS011;37825;40.088;18.302;2024-01-30T03:27:53;8.30;;;7.50;;
51746;SDS011;37825;40.088;18.302;2024-01-30T03:30:24;11.10;;;6.30;;
51746;SDS011;37825;40.088;18.302;2024-01-30T03:32:53;4.25;;;3.63;;
51746;SDS011;37825;40.088;18.302;2024-01-30T03:35:22;2.87;;;2.67;;
51746;SDS011;37825;40.088;18.302;2024-01-30T03:37:52;4.87;;;3.03;;
51746;SDS011;37825;40.088;18.302;2024-01-30T03:40:21;5.43;;;3.90;;
51746;SDS011;37825;40.088;18.302;2024-01-30T03:42:51;8.60;;;5.13;;
51746;SDS011;37825;40.088;18.302;2024-01-30T03:45:20;6.10;;;4.17;;
51746;SDS011;37825;40.088;18.302;2024-01-30T03:47:51;12.97;;;8.67;;
51746;SDS011;37825;40.088;18.302;2024-01-30T03:50:20;16.80;;;7.40;;
51746;SDS011;37825;40.088;18.302;2024-01-30T03:52:49;6.00;;;3.50;;
51746;SDS011;37825;40.088;18.302;2024-01-30T03:55:19;3.30;;;2.90;;
51746;SDS011;37825;40.088;18.302;2024-01-30T03:57:48;3.93;;;2.83;;
51746;SDS011;37825;40.088;18.302;2024-01-30T04:00:18;3.43;;;3.13;;
51746;SDS011;37825;40.088;18.302;2024-01-30T04:02:47;3.90;;;3.20;;
51746;SDS011;37825;40.088;18.302;2024-01-30T04:05:19;3.63;;;2.78;;
51746;SDS011;37825;40.088;18.302;2024-01-30T04:07:49;4.53;;;3.15;;
51746;SDS011;37825;40.088;18.302;2024-01-30T04:10:18;3.93;;;3.17;;
51746;SDS011;37825;40.088;18.302;2024-01-30T04:12:48;3.93;;;3.33;;
51746;SDS011;37825;40.088;18.302;2024-01-30T04:15:17;2.83;;;2.53;;
51746;SDS011;37825;40.088;18.302;2024-01-30T04:17:46;3.80;;;3.27;;
51746;SDS011;37825;40.088;18.302;2024-01-30T04:20:16;4.30;;;3.90;;
51746;SDS011;37825;40.088;18.302;2024-01-30T04:22:47;4.87;;;2.90;;
51746;SDS011;37825;40.088;18.302;2024-01-30T04:25:16;5.07;;;3.17;;
51746;SDS011;37825;40.088;18.302;2024-01-30T04:27:45;5.33;;;3.33;;
51746;SDS011;37825;40.088;18.302;2024-01-30T04:30:15;7.87;;;4.13;;
51746;SDS011;37825;40.088;18.302;2024-01-30T04:32:44;3.67;;;3.13;;
51746;SDS011;37825;40.088;18.302;2024-01-30T04:35:13;5.33;;;3.37;;
51746;SDS011;37825;40.088;18.302;2024-01-30T04:37:43;7.07;;;3.80;;
51746;SDS011;37825;40.088;18.302;2024-01-30T04:40:14;21.17;;;4.20;;
51746;SDS011;37825;40.088;18.302;2024-01-30T04:42:43;18.15;;;4.13;;
51746;SDS011;37825;40.088;18.302;2024-01-30T04:45:12;7.10;;;3.27;;
51746;SDS011;37825;40.088;18.302;2024-01-30T04:47:42;9.40;;;3.30;;
51746;SDS011;37825;40.088;18.302;2024-01-30T04:50:11;12.10;;;4.30;;
51746;SDS011;37825;40.088;18.302;2024-01-30T04:52:40;6.17;;;3.63;;
51746;SDS011;37825;40.088;18.302;2024-01-30T04:55:10;8.80;;;3.40;;
51746;SDS011;37825;40.088;18.302;2024-01-30T04:57:41;4.70;;;3.40;;
51746;SDS011;37825;40.088;18.302;2024-01-30T05:00:10;3.40;;;3.10;;
51746;SDS011;37825;40.088;18.302;2024-01-30T05:02:40;5.87;;;2.97;;
51746;SDS011;37825;40.088;18.302;2024-01-30T05:05:09;4.60;;;3.30;;
51746;SDS011;37825;40.088;18.302;2024-01-30T05:07:38;2.77;;;2.50;;
51746;SDS011;37825;40.088;18.302;2024-01-30T05:10:08;4.23;;;3.77;;
51746;SDS011;37825;40.088;18.302;2024-01-30T05:12:38;4.10;;;2.90;;
51746;SDS011;37825;40.088;18.302;2024-01-30T05:15:09;4.17;;;2.73;;
51746;SDS011;37825;40.088;18.302;2024-01-30T05:17:39;4.90;;;2.88;;
51746;SDS011;37825;40.088;18.302;2024-01-30T05:20:09;4.70;;;3.03;;
51746;SDS011;37825;40.088;18.302;2024-01-30T05:22:38;5.67;;;3.27;;
51746;SDS011;37825;40.088;18.302;2024-01-30T05:25:12;6.03;;;3.00;;
51746;SDS011;37825;40.088;18.302;2024-01-30T05:27:41;4.57;;;3.60;;
51746;SDS011;37825;40.088;18.302;2024-01-30T05:30:12;4.07;;;3.20;;
51746;SDS011;37825;40.088;18.302;2024-01-30T05:32:42;4.60;;;2.70;;
51746;SDS011;37825;40.088;18.302;2024-01-30T05:35:12;5.33;;;3.40;;
51746;SDS011;37825;40.088;18.302;2024-01-30T05:37:41;8.60;;;3.37;;
51746;SDS011;37825;40.088;18.302;2024-01-30T05:40:11;3.80;;;2.97;;
51746;SDS011;37825;40.088;18.302;2024-01-30T05:42:41;3.63;;;3.33;;
51746;SDS011;37825;40.088;18.302;2024-01-30T05:45:11;4.73;;;3.17;;
51746;SDS011;37825;40.088;18.302;2024-01-30T05:47:41;4.32;;;3.17;;
51746;SDS011;37825;40.088;18.302;2024-01-30T05:50:10;4.83;;;3.40;;
51746;SDS011;37825;40.088;18.302;2024-01-30T05:52:39;4.60;;;2.90;;
51746;SDS011;37825;40.088;18.302;2024-01-30T05:55:09;4.90;;;3.10;;
51746;SDS011;37825;40.088;18.302;2024-01-30T05:57:39;4.00;;;2.77;;
51746;SDS011;37825;40.088;18.302;2024-01-30T06:00:08;3.83;;;2.40;;
51746;SDS011;37825;40.088;18.302;2024-01-30T06:02:39;6.67;;;3.27;;
51746;SDS011;37825;40.088;18.302;2024-01-30T06:05:08;5.57;;;3.53;;
51746;SDS011;37825;40.088;18.302;2024-01-30T06:07:38;6.57;;;2.97;;
51746;SDS011;37825;40.088;18.302;2024-01-30T06:10:08;3.93;;;2.43;;
51746;SDS011;37825;40.088;18.302;2024-01-30T06:12:37;3.23;;;2.67;;
51746;SDS011;37825;40.088;18.302;2024-01-30T06:15:07;4.47;;;3.20;;
51746;SDS011;37825;40.088;18.302;2024-01-30T06:17:38;5.07;;;2.60;;
51746;SDS011;37825;40.088;18.302;2024-01-30T06:20:08;4.97;;;3.20;;
51746;SDS011;37825;40.088;18.302;2024-01-30T06:22:37;3.37;;;2.40;;
51746;SDS011;37825;40.088;18.302;2024-01-30T06:25:07;4.27;;;2.57;;
51746;SDS011;37825;40.088;18.302;2024-01-30T06:27:37;3.43;;;2.60;;
51746;SDS011;37825;40.088;18.302;2024-01-30T06:30:07;6.97;;;3.10;;
51746;SDS011;37825;40.088;18.302;2024-01-30T06:32:36;8.30;;;3.27;;
51746;SDS011;37825;40.088;18.302;2024-01-30T06:35:08;5.47;;;3.60;;
51746;SDS011;37825;40.088;18.302;2024-01-30T06:37:37;7.43;;;4.20;;
51746;SDS011;37825;40.088;18.302;2024-01-30T06:40:07;5.97;;;4.07;;
51746;SDS011;37825;40.088;18.302;2024-01-30T06:42:37;4.50;;;3.60;;
51746;SDS011;37825;40.088;18.302;2024-01-30T06:45:06;5.03;;;3.10;;
51746;SDS011;37825;40.088;18.302;2024-01-30T06:47:36;8.80;;;3.60;;
51746;SDS011;37825;40.088;18.302;2024-01-30T06:50:07;5.40;;;2.90;;
51746;SDS011;37825;40.088;18.302;2024-01-30T06:52:37;5.10;;;2.97;;
51746;SDS011;37825;40.088;18.302;2024-01-30T06:55:06;8.27;;;3.50;;
51746;SDS011;37825;40.088;18.302;2024-01-30T06:57:36;6.20;;;3.13;;
51746;SDS011;37825;40.088;18.302;2024-01-30T07:00:06;5.93;;;3.13;;
51746;SDS011;37825;40.088;18.302;2024-01-30T07:02:35;7.80;;;3.53;;
51746;SDS011;37825;40.088;18.302;2024-01-30T07:05:04;3.10;;;2.60;;
51746;SDS011;37825;40.088;18.302;2024-01-30T07:07:35;5.00;;;3.73;;
51746;SDS011;37825;40.088;18.302;2024-01-30T07:10:05;6.63;;;3.67;;
51746;SDS011;37825;40.088;18.302;2024-01-30T07:12:35;3.73;;;3.20;;
51746;SDS011;37825;40.088;18.302;2024-01-30T07:15:04;2.33;;;1.53;;
51746;SDS011;37825;40.088;18.302;2024-01-30T07:17:35;6.27;;;3.13;;
51746;SDS011;37825;40.088;18.302;2024-01-30T07:20:05;5.30;;;3.33;;
